KDEN

Denver International Airport

Airport
ICAO code
KDEN
IATA Code
DEN
Summary
ICAO Region
NAM
ICAO Territory
Location

Denver, Colorado,

Serving
Denver
Elevation
5431 ft
Coordinates
39° 51' 34" N , 104° 40' 19" W
KCC
Airport RE
Hot and High Operations
Metar
Observation
KDEN 260853Z 24009KT 10SM CLR 11/03 A3030 RMK AO2 SLP199 T01060033 56007
Station
Denver, Denver International Airport
Date/Time
2022-09-26 08:53:00
Wind direction
240°
Wind speed
09 kts
Lowest cloud amount
n/a
Temperature
10.6°C
Dew point
3.3°C
Humidity
60%
Weather condition
n/a

Description

International airport serving the City of Denver.

Climatology

Cold Semi-arid climate (Köppen climate classification BSk). - Hot, sometimes extremely hot summers and cold, sometimes very cold winters. Some snowfall during the winter. Areas featuring cold semi-arid climates are sometimes subject to major temperature swings during a 24 hour period.

SKYbrary Partners:

Safety knowledge contributed by: